createdAt,value
2019-02-15T00:00:03.153Z,55.15
2019-02-15T00:05:09.118Z,55.01
2019-02-15T00:10:05.735Z,55.04
2019-02-15T00:15:07.769Z,54.88
2019-02-15T00:20:07.573Z,54.34
2019-02-15T00:25:06.630Z,54.47
2019-02-15T00:30:03.062Z,54.78
2019-02-15T00:35:07.125Z,55.12
2019-02-15T00:40:05.908Z,54.96
2019-02-15T00:45:03.288Z,55.39
2019-02-15T00:50:07.389Z,55.68
2019-02-15T00:55:06.741Z,55.9
2019-02-15T01:00:03.230Z,56.56
2019-02-15T01:05:07.287Z,57.55
2019-02-15T01:10:07.200Z,57.48
2019-02-15T01:15:03.259Z,57.66
2019-02-15T01:20:07.344Z,57.92
2019-02-15T01:25:06.510Z,58.3
2019-02-15T01:30:02.920Z,58.37
2019-02-15T01:35:07.074Z,58.6
2019-02-15T01:40:05.613Z,58.69
2019-02-15T01:45:03.241Z,58.93
2019-02-15T01:50:03.966Z,59.2
2019-02-15T01:55:03.708Z,59.39
2019-02-15T02:00:03.318Z,59.65
2019-02-15T02:05:03.456Z,60.01
2019-02-15T02:10:04.114Z,60.46
2019-02-15T02:15:03.629Z,60.91
2019-02-15T02:20:06.819Z,65.03
2019-02-15T02:25:10.913Z,66.06
2019-02-15T02:30:07.195Z,66.1
2019-02-15T02:35:05.650Z,66.06
2019-02-15T02:40:07.289Z,67.81
2019-02-15T02:45:03.814Z,67.03
2019-02-15T02:50:07.196Z,67.86
2019-02-15T02:55:07.736Z,70.12
2019-02-15T03:00:04.181Z,74.63
2019-02-15T03:05:06.651Z,77.77
2019-02-15T03:10:09.239Z,78.42
2019-02-15T03:15:04.627Z,79.16
2019-02-15T03:20:12.737Z,79.77
2019-02-15T03:25:07.395Z,81.44
2019-02-15T03:30:11.046Z,83.05
2019-02-15T03:35:12.725Z,83.92
2019-02-15T03:40:10.716Z,84.56
2019-02-15T03:45:12.008Z,84.96
2019-02-15T03:50:08.220Z,85.34
2019-02-15T03:55:08.908Z,85.65
2019-02-15T04:00:07.282Z,86.49
2019-02-15T04:05:07.089Z,85.77
2019-02-15T04:10:06.423Z,84.72
2019-02-15T04:15:06.128Z,83.65
2019-02-15T04:20:06.442Z,81.59
2019-02-15T04:25:07.569Z,82.6
2019-02-15T04:30:03.028Z,83.19
2019-02-15T04:35:07.107Z,84.21
2019-02-15T04:40:08.045Z,84.47
2019-02-15T04:45:02.687Z,83.63
2019-02-15T04:50:07.236Z,79.01
2019-02-15T04:55:08.577Z,78.32
2019-02-15T05:00:03.076Z,76.29
2019-02-15T05:05:08.342Z,77
2019-02-15T05:10:09.177Z,76.2
2019-02-15T05:15:04.075Z,74.35
2019-02-15T05:20:08.736Z,72.78
2019-02-15T05:25:08.147Z,72.05
2019-02-15T05:30:02.626Z,71.08
2019-02-15T05:35:08.208Z,70.33
2019-02-15T05:40:07.720Z,69.76
2019-02-15T05:45:05.001Z,69.25
2019-02-15T05:50:08.872Z,69.28
2019-02-15T05:55:08.164Z,69.33
2019-02-15T06:00:02.732Z,69.02
2019-02-15T06:05:07.922Z,68.83
2019-02-15T06:10:03.767Z,68.66
2019-02-15T06:15:16.002Z,68.75
2019-02-15T06:20:05.779Z,68.39
2019-02-15T06:25:07.694Z,67.95
2019-02-15T06:30:03.223Z,68.44
2019-02-15T06:35:06.121Z,68.18
2019-02-15T06:40:06.989Z,67.43
2019-02-15T06:45:02.489Z,67.04
2019-02-15T06:50:07.030Z,67.51
2019-02-15T06:55:07.894Z,67.67
2019-02-15T07:00:03.299Z,68.39
2019-02-15T07:05:05.499Z,67.83
2019-02-15T07:10:07.019Z,67.65
2019-02-15T07:15:02.543Z,66.95
2019-02-15T07:20:05.714Z,66.57
2019-02-15T07:25:04.800Z,66.48
2019-02-15T07:30:03.185Z,66.03
2019-02-15T07:35:03.915Z,66.06
2019-02-15T07:40:04.522Z,65.93
2019-02-15T07:45:03.004Z,65.55
2019-02-15T07:50:05.058Z,65.02
2019-02-15T07:55:07.322Z,64.22
2019-02-15T08:00:04.263Z,63.87
2019-02-15T08:05:06.645Z,63.51
2019-02-15T08:10:07.870Z,62.85
2019-02-15T08:15:04.513Z,62.52
2019-02-15T08:20:07.845Z,62.49
2019-02-15T08:25:10.242Z,62.12
2019-02-15T08:30:03.810Z,62.17
2019-02-15T08:35:07.199Z,62.04
2019-02-15T08:40:08.745Z,61.6
2019-02-15T08:45:06.412Z,61.21
2019-02-15T08:50:09.075Z,61.15
2019-02-15T08:55:06.958Z,60.64
2019-02-15T09:00:03.574Z,60.17
2019-02-15T09:05:09.376Z,60.13
2019-02-15T09:10:07.314Z,59.91
2019-02-15T09:15:04.037Z,59.52
2019-02-15T09:20:06.960Z,58.32
2019-02-15T09:25:06.718Z,58.87
2019-02-15T09:30:04.190Z,58.39
2019-02-15T09:35:05.859Z,58.35
2019-02-15T09:40:07.272Z,57.21
2019-02-15T09:45:03.917Z,56.34
2019-02-15T09:50:07.524Z,55.76
2019-02-15T09:55:06.658Z,54.73
2019-02-15T10:00:04.305Z,53.99
2019-02-15T10:05:07.043Z,53.12
2019-02-15T10:10:06.614Z,52.32
2019-02-15T10:15:04.212Z,52.48
2019-02-15T10:20:06.519Z,51.34
2019-02-15T10:25:09.596Z,50.69
2019-02-15T10:30:04.265Z,51.06
2019-02-15T10:35:07.641Z,50.52
2019-02-15T10:40:09.227Z,51.33
2019-02-15T10:45:07.005Z,50.59
2019-02-15T10:50:09.031Z,50.36
2019-02-15T10:55:07.044Z,50.8
2019-02-15T11:00:03.695Z,50.68
2019-02-15T11:05:09.693Z,50.05
2019-02-15T11:10:03.479Z,49.65
2019-02-15T11:15:05.093Z,49.39
2019-02-15T11:20:07.057Z,48.65
2019-02-15T11:25:07.668Z,48.83
2019-02-15T11:30:04.940Z,48.8
2019-02-15T11:35:07.041Z,48.1
2019-02-15T11:40:05.947Z,48.6
2019-02-15T11:45:03.942Z,47.68
2019-02-15T11:50:05.532Z,47.81
2019-02-15T11:55:06.989Z,47.57
2019-02-15T12:00:03.646Z,47.66
2019-02-15T12:05:07.260Z,47.17
2019-02-15T12:10:06.804Z,47.19
2019-02-15T12:15:03.478Z,46.68
2019-02-15T12:20:07.132Z,47.21
2019-02-15T12:25:07.020Z,46.56
2019-02-15T12:30:02.545Z,46.88
2019-02-15T12:35:07.241Z,46.63
2019-02-15T12:40:08.989Z,46.53
2019-02-15T12:45:03.650Z,46.36
2019-02-15T12:50:09.386Z,46.04
2019-02-15T12:55:07.391Z,47.11
2019-02-15T13:00:02.948Z,46.56
2019-02-15T13:05:07.178Z,46.04
2019-02-15T13:10:05.804Z,45.82
2019-02-15T13:15:03.262Z,45.75
2019-02-15T13:20:06.019Z,45.62
2019-02-15T13:25:06.976Z,45.56
2019-02-15T13:30:02.520Z,45.65
2019-02-15T13:35:07.365Z,45.77
2019-02-15T13:40:08.946Z,45.31
2019-02-15T13:45:02.489Z,45.11
2019-02-15T13:50:06.852Z,45.27
2019-02-15T13:55:09.485Z,44.83
2019-02-15T14:00:03.013Z,45.07
2019-02-15T14:05:09.728Z,44.97
2019-02-15T14:10:07.879Z,44.68
2019-02-15T14:15:03.204Z,44.8
2019-02-15T14:20:08.778Z,44.7
2019-02-15T14:25:04.710Z,45.25
2019-02-15T14:30:03.121Z,44.87
2019-02-15T14:35:03.990Z,45.04
2019-02-15T14:40:03.806Z,45.04
2019-02-15T14:45:03.393Z,44.61
2019-02-15T14:50:04.246Z,44.91
2019-02-15T14:55:04.007Z,45.01
2019-02-15T15:00:02.559Z,44.79
2019-02-15T15:05:04.535Z,45.24
2019-02-15T15:10:08.260Z,44.95
2019-02-15T15:15:03.974Z,44.76
2019-02-15T15:20:07.606Z,45.27
2019-02-15T15:25:09.656Z,45.11
2019-02-15T15:30:04.207Z,45.19
2019-02-15T15:35:09.642Z,45.12
2019-02-15T15:40:07.463Z,45.43
2019-02-15T15:45:04.099Z,45.33
2019-02-15T15:50:07.443Z,45.43
2019-02-15T15:55:06.310Z,45.58
2019-02-15T16:00:03.826Z,45.25
2019-02-15T16:05:06.617Z,45.78
2019-02-15T16:10:05.040Z,45.7
2019-02-15T16:15:04.399Z,46.46
2019-02-15T16:20:07.432Z,46.71
2019-02-15T16:25:09.596Z,47.04
2019-02-15T16:30:06.542Z,47.24
2019-02-15T16:35:09.668Z,47.37
2019-02-15T16:40:07.554Z,48.24
2019-02-15T16:45:04.008Z,48.8
2019-02-15T16:50:06.942Z,49.36
2019-02-15T16:55:15.795Z,49.63
2019-02-15T17:00:04.415Z,49.94
2019-02-15T17:05:07.625Z,50.29
2019-02-15T17:10:07.960Z,50.74
2019-02-15T17:15:06.044Z,53.42
2019-02-15T17:20:06.288Z,55.7
2019-02-15T17:25:07.362Z,56.16
2019-02-15T17:30:04.945Z,58.7
2019-02-15T17:35:06.283Z,60.61
2019-02-15T17:40:06.761Z,60.41
2019-02-15T17:45:03.219Z,59.53
2019-02-15T17:50:06.966Z,60.1
2019-02-15T17:55:07.452Z,58.54
2019-02-15T18:00:02.961Z,57.25
2019-02-15T18:05:06.716Z,56.18
2019-02-15T18:10:09.904Z,55.89
2019-02-15T18:15:04.646Z,55.8
2019-02-15T18:20:08.538Z,55.05
2019-02-15T18:25:08.588Z,55.42
2019-02-15T18:30:03.080Z,55.12
2019-02-15T18:35:08.752Z,54.93
2019-02-15T18:40:07.645Z,53.93
2019-02-15T18:45:03.112Z,52.74
2019-02-15T18:50:07.716Z,51.87
2019-02-15T18:55:07.773Z,51.51
2019-02-15T19:00:03.226Z,50.74
2019-02-15T19:05:07.351Z,50.44
2019-02-15T19:10:07.462Z,50.75
2019-02-15T19:15:04.782Z,50.06
2019-02-15T19:20:07.588Z,50.13
2019-02-15T19:25:08.116Z,50.18
2019-02-15T19:30:02.692Z,50.38
2019-02-15T19:35:07.562Z,50.45
2019-02-15T19:40:06.659Z,50.58
2019-02-15T19:45:03.176Z,50.9
2019-02-15T19:50:06.753Z,50.83
2019-02-15T19:55:06.673Z,50.84
2019-02-15T20:00:03.105Z,51.09
2019-02-15T20:05:05.697Z,51.21
2019-02-15T20:10:05.458Z,51.42
2019-02-15T20:15:02.979Z,51.15
2019-02-15T20:20:05.446Z,51.38
2019-02-15T20:25:04.559Z,51.68
2019-02-15T20:30:04.204Z,51.75
2019-02-15T20:35:03.966Z,52.04
2019-02-15T20:40:03.896Z,52.23
2019-02-15T20:45:03.295Z,52.38
2019-02-15T20:50:04.295Z,52.63
2019-02-15T20:55:05.399Z,52.89
2019-02-15T21:00:03.470Z,53.38
2019-02-15T21:05:05.680Z,53.39
2019-02-15T21:10:06.761Z,53.57
2019-02-15T21:15:03.630Z,53.91
2019-02-15T21:20:10.440Z,54.73
2019-02-15T21:25:07.572Z,54.83
2019-02-15T21:30:03.857Z,54.96
2019-02-15T21:35:07.205Z,55.27
2019-02-15T21:40:06.813Z,55.88
2019-02-15T21:45:04.348Z,56.28
2019-02-15T21:50:06.428Z,56.89
2019-02-15T21:55:08.299Z,57.1
2019-02-15T22:00:03.776Z,57.43
2019-02-15T22:05:07.471Z,58.24
2019-02-15T22:10:06.919Z,58.53
2019-02-15T22:15:03.561Z,58.36
2019-02-15T22:20:06.212Z,60.28
2019-02-15T22:25:07.237Z,59.89
2019-02-15T22:30:03.634Z,60.3
2019-02-15T22:35:06.178Z,60.61
2019-02-15T22:40:06.991Z,59.69
2019-02-15T22:45:03.507Z,59.5
2019-02-15T22:50:06.044Z,61.94
2019-02-15T22:55:07.022Z,62.59
2019-02-15T23:00:12.900Z,64.24
2019-02-15T23:05:07.250Z,66.52
2019-02-15T23:10:07.370Z,68.32
2019-02-15T23:15:03.970Z,69.5
2019-02-15T23:20:06.435Z,66.73
2019-02-15T23:25:10.195Z,64.52
2019-02-15T23:30:03.780Z,64.06
2019-02-15T23:35:07.148Z,63.91
2019-02-15T23:40:08.774Z,64.47
2019-02-15T23:45:04.255Z,65.48
2019-02-15T23:50:07.317Z,66.43
2019-02-15T23:55:09.091Z,68.63
